createdAt,value
2023-04-24T00:00:58.357Z,52.85
2023-04-24T00:03:27.407Z,54.47
2023-04-24T00:05:56.045Z,54.91
2023-04-24T00:08:25.110Z,53.00
2023-04-24T00:10:54.014Z,53.97
2023-04-24T00:13:21.994Z,54.02
2023-04-24T00:15:50.150Z,53.84
2023-04-24T00:18:18.527Z,54.47
2023-04-24T00:20:46.516Z,56.18
2023-04-24T00:23:14.660Z,58.83
2023-04-24T00:25:43.047Z,58.45
2023-04-24T00:28:11.019Z,64.59
2023-04-24T00:30:39.007Z,66.02
2023-04-24T00:33:07.433Z,59.14
2023-04-24T00:35:35.831Z,64.19
2023-04-24T00:38:03.856Z,63.34
2023-04-24T00:40:32.316Z,58.51
2023-04-24T00:43:00.346Z,57.96
2023-04-24T00:45:28.658Z,63.91
2023-04-24T00:47:58.290Z,59.15
2023-04-24T00:50:26.634Z,56.41
2023-04-24T00:52:54.786Z,56.62
2023-04-24T00:55:23.408Z,59.89
2023-04-24T00:57:51.832Z,59.81
2023-04-24T01:00:20.327Z,59.90
2023-04-24T01:02:49.092Z,58.96
2023-04-24T01:05:18.429Z,57.18
2023-04-24T01:07:49.576Z,58.10
2023-04-24T01:10:19.093Z,58.94
2023-04-24T01:12:47.959Z,55.98
2023-04-24T01:15:16.749Z,58.95
2023-04-24T01:17:45.147Z,60.62
2023-04-24T01:20:13.292Z,61.31
2023-04-24T01:22:43.544Z,58.83
2023-04-24T01:25:11.945Z,58.57
2023-04-24T01:27:40.084Z,59.49
2023-04-24T01:30:09.317Z,61.47
2023-04-24T01:32:38.420Z,60.16
2023-04-24T01:35:07.331Z,60.93
2023-04-24T01:37:35.380Z,60.49
2023-04-24T01:40:07.950Z,62.17
2023-04-24T01:42:36.609Z,61.81
2023-04-24T01:45:06.602Z,62.26
2023-04-24T01:47:34.661Z,62.88
2023-04-24T01:50:02.710Z,62.59
2023-04-24T01:52:32.462Z,61.84
2023-04-24T01:55:08.347Z,62.02
2023-04-24T01:57:37.035Z,64.94
2023-04-24T02:00:06.969Z,66.43
2023-04-24T02:02:43.124Z,65.77
2023-04-24T02:05:12.724Z,66.45
2023-04-24T02:07:41.125Z,66.84
2023-04-24T02:10:11.349Z,68.43
2023-04-24T02:12:43.802Z,67.96
2023-04-24T02:15:12.319Z,69.44
2023-04-24T02:17:40.764Z,69.15
2023-04-24T02:20:09.376Z,66.06
2023-04-24T02:22:37.478Z,66.21
2023-04-24T02:25:06.290Z,69.38
2023-04-24T02:27:34.676Z,67.98
2023-04-24T02:30:02.780Z,67.83
2023-04-24T02:32:32.114Z,71.08
2023-04-24T02:35:00.715Z,69.78
2023-04-24T02:37:28.849Z,70.78
2023-04-24T02:39:56.795Z,71.00
2023-04-24T02:42:25.130Z,73.36
2023-04-24T02:44:53.127Z,74.59
2023-04-24T02:47:21.459Z,75.89
2023-04-24T02:49:50.831Z,77.39
2023-04-24T02:52:18.905Z,76.42
2023-04-24T02:54:46.965Z,73.81
2023-04-24T02:57:16.296Z,71.00
2023-04-24T02:59:44.711Z,71.13
2023-04-24T03:02:12.923Z,71.48
2023-04-24T03:04:41.613Z,69.55
2023-04-24T03:07:09.977Z,68.66
2023-04-24T03:09:38.685Z,70.92
2023-04-24T03:12:07.217Z,70.82
2023-04-24T03:14:35.994Z,71.17
2023-04-24T03:17:04.135Z,72.01
2023-04-24T03:19:32.622Z,71.84
2023-04-24T03:22:03.500Z,72.36
2023-04-24T03:24:32.736Z,72.31
2023-04-24T03:27:01.468Z,72.88
2023-04-24T03:29:30.437Z,70.03
2023-04-24T03:31:59.125Z,71.14
2023-04-24T03:34:27.592Z,75.84
2023-04-24T03:36:55.660Z,74.60
2023-04-24T03:39:24.123Z,72.57
2023-04-24T03:41:53.007Z,69.34
2023-04-24T03:44:22.271Z,67.22
2023-04-24T03:46:50.530Z,64.54
2023-04-24T03:49:20.622Z,64.22
2023-04-24T03:51:48.935Z,64.32
2023-04-24T03:54:17.280Z,66.86
2023-04-24T03:56:46.174Z,69.83
2023-04-24T03:59:14.762Z,71.44
2023-04-24T04:01:44.181Z,73.80
2023-04-24T04:04:13.052Z,70.62
2023-04-24T04:06:41.409Z,70.14
2023-04-24T04:09:09.948Z,66.91
2023-04-24T04:11:38.429Z,64.10
2023-04-24T04:14:07.294Z,65.33
2023-04-24T04:16:37.656Z,64.31
2023-04-24T04:19:06.751Z,64.03
2023-04-24T04:21:34.857Z,64.83
2023-04-24T04:24:04.156Z,68.78
2023-04-24T04:26:33.859Z,66.57
2023-04-24T04:29:04.487Z,66.24
2023-04-24T04:31:33.047Z,66.69
2023-04-24T04:34:02.796Z,67.59
2023-04-24T04:36:31.335Z,66.22
2023-04-24T04:39:00.620Z,66.77
2023-04-24T04:41:36.340Z,67.24
2023-04-24T04:44:05.891Z,65.95
2023-04-24T04:46:34.369Z,67.11
2023-04-24T04:49:03.667Z,66.67
2023-04-24T04:51:32.372Z,68.30
2023-04-24T04:54:00.817Z,67.18
2023-04-24T04:56:28.889Z,68.45
2023-04-24T04:58:57.754Z,67.93
2023-04-24T05:01:28.829Z,68.67
2023-04-24T05:03:57.679Z,67.35
2023-04-24T05:06:26.440Z,66.32
2023-04-24T05:08:58.599Z,66.69
2023-04-24T05:11:27.870Z,67.86
2023-04-24T05:13:57.268Z,66.60
2023-04-24T05:16:29.717Z,66.27
2023-04-24T05:18:59.091Z,66.14
2023-04-24T05:21:28.755Z,66.76
2023-04-24T05:23:56.789Z,67.30
2023-04-24T05:26:25.700Z,66.96
2023-04-24T05:28:53.804Z,68.35
2023-04-24T05:31:22.456Z,68.58
2023-04-24T05:33:51.026Z,69.82
2023-04-24T05:36:19.416Z,67.27
2023-04-24T05:38:47.812Z,67.75
2023-04-24T05:41:16.596Z,69.59
2023-04-24T05:43:44.741Z,66.04
2023-04-24T05:46:13.263Z,68.16
2023-04-24T05:48:41.654Z,66.33
2023-04-24T05:51:11.315Z,66.49
2023-04-24T05:53:39.355Z,64.88
2023-04-24T05:56:08.032Z,64.91
2023-04-24T05:58:36.346Z,65.99
2023-04-24T06:01:04.580Z,66.87
2023-04-24T06:03:33.115Z,65.89
2023-04-24T06:06:01.170Z,65.81
2023-04-24T06:08:29.369Z,66.22
2023-04-24T06:10:57.931Z,66.70
2023-04-24T06:13:26.657Z,68.12
2023-04-24T06:15:55.718Z,69.06
2023-04-24T06:18:24.258Z,69.33
2023-04-24T06:20:53.076Z,68.97
2023-04-24T06:23:21.099Z,68.84
2023-04-24T06:25:49.542Z,68.29
2023-04-24T06:28:17.498Z,69.13
2023-04-24T06:30:45.601Z,69.14
2023-04-24T06:35:47.231Z,67.23
2023-04-24T06:38:17.582Z,67.11
2023-04-24T06:40:50.633Z,68.19
2023-04-24T06:43:26.079Z,67.00
2023-04-24T06:45:58.897Z,68.68
2023-04-24T06:48:29.801Z,68.59
2023-04-24T06:51:01.361Z,67.50
2023-04-24T06:53:31.823Z,68.22
2023-04-24T06:55:59.927Z,68.64
2023-04-24T06:58:28.154Z,67.85
2023-04-24T07:00:57.823Z,67.46
2023-04-24T07:03:29.467Z,66.93
2023-04-24T07:05:59.076Z,65.00
2023-04-24T07:08:27.101Z,65.41
2023-04-24T07:10:55.324Z,66.41
2023-04-24T07:13:24.576Z,67.05
2023-04-24T07:15:55.575Z,64.95
2023-04-24T07:18:25.109Z,65.24
2023-04-24T07:20:53.420Z,64.77
2023-04-24T07:23:21.625Z,64.52
2023-04-24T07:25:50.801Z,63.33
2023-04-24T07:28:19.233Z,63.15
2023-04-24T07:30:47.524Z,63.83
2023-04-24T07:33:15.963Z,61.02
2023-04-24T07:35:43.981Z,59.96
2023-04-24T07:38:12.666Z,59.45
2023-04-24T07:40:41.011Z,63.83
2023-04-24T07:43:08.985Z,61.43
2023-04-24T07:45:38.760Z,60.01
2023-04-24T07:48:07.374Z,55.85
2023-04-24T07:50:36.054Z,56.92
2023-04-24T07:53:04.268Z,55.24
2023-04-24T07:55:32.630Z,53.00
2023-04-24T07:58:00.651Z,55.01
2023-04-24T08:00:28.697Z,56.86
2023-04-24T08:02:57.431Z,57.84
2023-04-24T08:05:27.082Z,59.82
2023-04-24T08:07:55.710Z,60.11
2023-04-24T08:10:24.727Z,59.60
2023-04-24T08:12:53.053Z,59.26
2023-04-24T08:15:21.227Z,61.11
2023-04-24T08:17:49.695Z,60.90
2023-04-24T08:20:17.779Z,60.59
2023-04-24T08:22:48.882Z,61.94
2023-04-24T08:25:17.439Z,60.34
2023-04-24T08:27:45.388Z,60.07
2023-04-24T08:30:13.816Z,57.65
2023-04-24T08:32:42.826Z,58.27
2023-04-24T08:35:11.266Z,56.90
2023-04-24T08:37:39.788Z,52.09
2023-04-24T08:40:15.571Z,51.38
2023-04-24T08:42:45.480Z,50.98
2023-04-24T08:45:14.511Z,52.14
2023-04-24T08:47:43.562Z,52.04
2023-04-24T08:50:13.922Z,50.89
2023-04-24T08:52:44.029Z,51.67
2023-04-24T08:55:12.381Z,49.16
2023-04-24T08:57:41.611Z,49.95
2023-04-24T09:00:12.234Z,49.09
2023-04-24T09:02:47.427Z,48.70
2023-04-24T09:05:18.957Z,49.78
2023-04-24T09:07:53.873Z,51.20
2023-04-24T09:10:26.606Z,50.32
2023-04-24T09:12:56.302Z,47.59
2023-04-24T09:15:26.065Z,46.81
2023-04-24T09:17:54.241Z,43.55
2023-04-24T09:20:22.574Z,44.41
2023-04-24T09:22:56.016Z,43.30
2023-04-24T09:25:24.394Z,45.38
2023-04-24T09:27:55.855Z,47.06
2023-04-24T09:30:24.512Z,48.32
2023-04-24T09:33:14.491Z,48.66
2023-04-24T09:35:53.169Z,48.78
2023-04-24T09:38:32.858Z,50.49
2023-04-24T09:41:04.284Z,51.36
2023-04-24T09:43:33.074Z,49.57
2023-04-24T09:46:06.639Z,49.98
2023-04-24T09:48:37.510Z,48.41
2023-04-24T09:51:12.534Z,49.22
2023-04-24T09:53:41.358Z,47.61
2023-04-24T09:56:11.106Z,49.53
2023-04-24T09:58:39.431Z,48.25
2023-04-24T10:01:07.975Z,47.71
2023-04-24T10:03:37.208Z,48.03
2023-04-24T10:06:10.350Z,46.65
2023-04-24T10:08:38.968Z,47.13
2023-04-24T10:11:08.599Z,48.29
2023-04-24T10:13:36.810Z,49.46
2023-04-24T10:16:05.589Z,49.63
2023-04-24T10:18:34.026Z,51.68
2023-04-24T10:21:02.667Z,51.90
2023-04-24T10:23:31.543Z,53.58
2023-04-24T10:26:00.779Z,54.28
2023-04-24T10:28:29.522Z,50.40
2023-04-24T10:30:58.746Z,50.28
2023-04-24T10:33:28.527Z,51.38
2023-04-24T10:35:57.984Z,50.87
2023-04-24T10:38:28.548Z,51.92
2023-04-24T10:41:17.413Z,51.46
2023-04-24T10:43:48.589Z,52.18
2023-04-24T10:46:23.334Z,52.68
2023-04-24T10:48:56.359Z,52.86
2023-04-24T10:51:25.784Z,51.87
2023-04-24T10:53:54.168Z,51.65
2023-04-24T10:56:23.403Z,52.55
2023-04-24T10:58:53.601Z,51.27
2023-04-24T11:01:31.744Z,50.71
2023-04-24T11:04:01.810Z,48.96
2023-04-24T11:06:39.267Z,49.13
2023-04-24T11:09:08.623Z,48.09
2023-04-24T11:11:38.882Z,48.31
2023-04-24T11:14:08.684Z,48.42
2023-04-24T11:16:45.877Z,47.51
2023-04-24T11:19:19.801Z,47.60
2023-04-24T11:22:15.588Z,46.50
2023-04-24T11:24:46.583Z,45.48
2023-04-24T11:27:21.552Z,44.57
2023-04-24T11:29:59.390Z,46.33
2023-04-24T11:32:40.968Z,44.34
2023-04-24T11:35:16.942Z,43.58
2023-04-24T11:38:13.025Z,44.19
2023-04-24T11:40:43.283Z,43.82
2023-04-24T11:43:11.978Z,41.28
2023-04-24T11:45:50.526Z,42.44
2023-04-24T11:48:24.082Z,41.74
2023-04-24T11:50:53.280Z,44.19
2023-04-24T11:53:23.810Z,40.82
2023-04-24T11:55:54.217Z,42.81
2023-04-24T11:58:23.992Z,41.96
2023-04-24T12:00:58.751Z,41.91
2023-04-24T12:03:27.540Z,43.19
2023-04-24T12:06:09.706Z,42.60
2023-04-24T12:08:39.713Z,43.30
2023-04-24T12:11:09.032Z,43.34
2023-04-24T12:13:37.770Z,41.50
2023-04-24T12:16:06.908Z,41.02
2023-04-24T12:18:35.160Z,42.42
2023-04-24T12:21:23.639Z,43.39
2023-04-24T12:23:52.187Z,44.56
2023-04-24T12:26:23.165Z,45.72
2023-04-24T12:28:51.802Z,42.58
2023-04-24T12:31:22.353Z,42.76
2023-04-24T12:33:50.466Z,43.22
2023-04-24T12:36:19.551Z,43.39
2023-04-24T12:38:47.926Z,44.93
2023-04-24T12:41:16.413Z,44.14
2023-04-24T12:43:55.016Z,44.33
2023-04-24T12:46:23.197Z,43.06
2023-04-24T12:48:51.507Z,43.72
2023-04-24T12:51:19.489Z,45.30
2023-04-24T12:53:47.450Z,46.79
2023-04-24T12:56:15.885Z,47.64
2023-04-24T12:58:44.115Z,47.52
2023-04-24T13:01:12.644Z,47.56
2023-04-24T13:03:41.555Z,50.04
2023-04-24T13:06:09.943Z,48.65
2023-04-24T13:08:37.910Z,48.54
2023-04-24T13:11:06.374Z,49.38
2023-04-24T13:13:34.399Z,48.70
2023-04-24T13:16:02.808Z,48.65
2023-04-24T13:18:31.345Z,49.72
2023-04-24T13:20:59.686Z,51.94
2023-04-24T13:23:27.746Z,56.61
2023-04-24T13:25:59.561Z,58.69
2023-04-24T13:28:27.702Z,60.95
2023-04-24T13:30:56.093Z,64.08
2023-04-24T13:33:24.476Z,64.88
2023-04-24T13:35:52.504Z,67.59
2023-04-24T13:38:22.782Z,70.07
2023-04-24T13:40:51.293Z,69.75
2023-04-24T13:43:19.286Z,71.42
2023-04-24T13:45:47.389Z,74.58
2023-04-24T13:48:19.241Z,78.81
2023-04-24T13:50:49.491Z,76.32
2023-04-24T13:53:17.891Z,80.95
2023-04-24T13:55:45.935Z,80.51
2023-04-24T13:58:14.137Z,78.16
2023-04-24T14:00:42.535Z,76.05
2023-04-24T14:03:11.174Z,74.44
2023-04-24T14:05:39.293Z,75.99
2023-04-24T14:08:07.603Z,75.68
2023-04-24T14:10:36.566Z,77.61
2023-04-24T14:13:04.664Z,76.92
2023-04-24T14:15:32.689Z,73.47
2023-04-24T14:18:01.119Z,72.18
2023-04-24T14:20:29.163Z,72.55
2023-04-24T14:22:59.646Z,70.46
2023-04-24T14:25:28.083Z,68.70
2023-04-24T14:27:56.220Z,67.54
2023-04-24T14:30:24.288Z,67.91
2023-04-24T14:32:52.795Z,67.16
2023-04-24T14:35:21.002Z,68.24
2023-04-24T14:37:49.705Z,69.46
2023-04-24T14:40:39.649Z,69.80
2023-04-24T14:43:06.286Z,68.52
2023-04-24T14:45:34.768Z,70.60
2023-04-24T14:48:02.870Z,70.44
2023-04-24T14:50:31.080Z,73.02
2023-04-24T14:52:59.621Z,71.45
2023-04-24T14:55:27.720Z,71.77
2023-04-24T14:57:56.050Z,73.26
2023-04-24T15:00:27.575Z,73.57
2023-04-24T15:02:56.618Z,73.18
2023-04-24T15:05:26.483Z,69.29
2023-04-24T15:07:54.808Z,71.26
2023-04-24T15:10:24.192Z,71.08
2023-04-24T15:12:53.113Z,71.82
2023-04-24T15:15:21.329Z,72.59
2023-04-24T15:17:49.415Z,71.15
2023-04-24T15:20:17.915Z,71.07
2023-04-24T15:22:46.155Z,69.23
2023-04-24T15:25:14.134Z,69.67
2023-04-24T15:27:43.928Z,72.93
2023-04-24T15:30:12.636Z,73.01
2023-04-24T15:32:40.873Z,72.90
2023-04-24T15:35:10.564Z,73.48
2023-04-24T15:37:39.783Z,72.88
2023-04-24T15:40:08.790Z,69.33
2023-04-24T15:42:37.247Z,70.76
2023-04-24T15:45:05.478Z,69.96
2023-04-24T15:47:34.675Z,73.67
2023-04-24T15:50:04.247Z,75.05
2023-04-24T15:52:32.431Z,72.42
2023-04-24T15:55:00.388Z,72.22
2023-04-24T15:57:28.744Z,73.30
2023-04-24T15:59:56.837Z,74.29
2023-04-24T16:02:24.923Z,74.59
2023-04-24T16:04:53.797Z,75.52
2023-04-24T16:07:21.976Z,77.97
2023-04-24T16:09:50.106Z,77.15
2023-04-24T16:12:18.543Z,78.18
2023-04-24T16:14:46.612Z,76.70
2023-04-24T16:17:14.711Z,76.90
2023-04-24T16:19:43.176Z,74.87
2023-04-24T16:22:11.239Z,76.86
2023-04-24T16:24:39.153Z,80.04
2023-04-24T16:27:07.461Z,76.10
2023-04-24T16:29:35.515Z,78.63
2023-04-24T16:32:03.530Z,76.73
2023-04-24T16:34:32.002Z,79.16
2023-04-24T16:37:00.146Z,81.39
2023-04-24T16:39:28.472Z,78.91
2023-04-24T16:41:59.664Z,78.21
2023-04-24T16:44:28.457Z,79.53
2023-04-24T16:46:57.084Z,82.07
2023-04-24T16:49:25.529Z,83.53
2023-04-24T16:51:53.663Z,83.86
2023-04-24T16:54:21.967Z,83.95
2023-04-24T16:56:49.999Z,83.76
2023-04-24T16:59:17.947Z,83.31
2023-04-24T17:01:46.654Z,83.92
2023-04-24T17:04:14.758Z,85.07
2023-04-24T17:06:42.811Z,86.46
2023-04-24T17:09:13.241Z,84.74
2023-04-24T17:11:41.326Z,83.63
2023-04-24T17:14:09.502Z,84.93
2023-04-24T17:16:38.471Z,88.40
2023-04-24T17:19:07.220Z,86.49
2023-04-24T17:21:35.284Z,86.91
2023-04-24T17:24:03.851Z,85.89
2023-04-24T17:26:32.677Z,85.53
2023-04-24T17:29:00.943Z,85.78
2023-04-24T17:31:29.480Z,87.71
2023-04-24T17:33:57.897Z,87.46
2023-04-24T17:36:26.081Z,86.99
2023-04-24T17:38:54.835Z,88.83
2023-04-24T17:41:22.882Z,87.90
2023-04-24T17:43:51.107Z,88.59
2023-04-24T17:46:19.807Z,90.42
2023-04-24T17:48:49.520Z,90.55
2023-04-24T17:51:18.026Z,93.24
2023-04-24T17:53:46.695Z,90.97
2023-04-24T17:56:14.834Z,91.74
2023-04-24T17:58:42.890Z,94.65
2023-04-24T18:01:11.322Z,93.51
2023-04-24T18:03:39.919Z,93.47
2023-04-24T18:06:08.148Z,92.38
2023-04-24T18:08:36.648Z,90.79
2023-04-24T18:11:04.983Z,89.75
2023-04-24T18:13:33.002Z,91.80
2023-04-24T18:16:01.254Z,90.45
2023-04-24T18:18:29.554Z,90.46
2023-04-24T18:20:57.860Z,88.96
2023-04-24T18:23:26.013Z,89.32
2023-04-24T18:25:54.524Z,86.65
2023-04-24T18:28:22.629Z,86.64
2023-04-24T18:30:50.700Z,87.42
2023-04-24T18:33:19.289Z,87.60
2023-04-24T18:35:47.332Z,87.45
2023-04-24T18:38:15.470Z,86.61
2023-04-24T18:40:44.049Z,86.75
2023-04-24T18:43:12.124Z,87.62
2023-04-24T18:45:40.289Z,86.52
2023-04-24T18:48:08.763Z,87.42
2023-04-24T18:50:39.076Z,87.02
2023-04-24T18:53:10.093Z,87.82
2023-04-24T18:55:38.468Z,88.49
2023-04-24T18:58:06.427Z,89.35
2023-04-24T19:00:34.533Z,88.99
2023-04-24T19:03:03.358Z,88.15
2023-04-24T19:05:31.533Z,85.34
2023-04-24T19:07:59.569Z,84.10
2023-04-24T19:10:29.180Z,83.83
2023-04-24T19:12:57.439Z,81.78
2023-04-24T19:15:25.813Z,80.37
2023-04-24T19:17:54.278Z,83.07
2023-04-24T19:20:22.524Z,84.40
2023-04-24T19:22:51.192Z,81.64
2023-04-24T19:25:19.502Z,82.36
2023-04-24T19:27:47.457Z,83.72
2023-04-24T19:30:15.728Z,84.97
2023-04-24T19:32:44.180Z,86.04
2023-04-24T19:35:12.206Z,86.73
2023-04-24T19:37:40.531Z,87.59
2023-04-24T19:40:09.387Z,87.35
2023-04-24T19:45:14.317Z,85.65
2023-04-24T19:47:42.322Z,84.47
2023-04-24T19:50:10.886Z,83.28
2023-04-24T19:52:38.982Z,84.25
2023-04-24T19:55:09.169Z,84.12
2023-04-24T19:57:39.194Z,83.97
2023-04-24T20:00:08.830Z,85.14
2023-04-24T20:02:37.374Z,84.75
2023-04-24T20:05:06.384Z,85.00
2023-04-24T20:07:34.751Z,83.74
2023-04-24T20:10:03.118Z,80.50
2023-04-24T20:12:31.373Z,82.48
2023-04-24T20:14:59.397Z,85.26
2023-04-24T20:17:27.770Z,85.13
2023-04-24T20:19:55.998Z,84.00
2023-04-24T20:22:24.115Z,83.24
2023-04-24T20:24:52.513Z,86.59
2023-04-24T20:27:21.156Z,86.54
2023-04-24T20:29:49.246Z,86.61
2023-04-24T20:32:17.825Z,84.53
2023-04-24T20:34:48.500Z,88.57
2023-04-24T20:37:17.406Z,86.38
2023-04-24T20:39:46.574Z,88.37
2023-04-24T20:42:16.814Z,87.03
2023-04-24T20:44:46.001Z,83.81
2023-04-24T20:47:14.636Z,85.01
2023-04-24T20:49:42.691Z,85.01
2023-04-24T20:52:11.205Z,84.56
2023-04-24T20:54:42.392Z,82.01
2023-04-24T20:57:10.728Z,82.85
2023-04-24T20:59:39.549Z,84.05
2023-04-24T21:02:07.877Z,83.29
2023-04-24T21:04:38.830Z,86.20
2023-04-24T21:07:09.559Z,84.64
2023-04-24T21:09:37.671Z,84.89
2023-04-24T21:12:05.993Z,84.82
2023-04-24T21:14:34.436Z,84.34
2023-04-24T21:17:03.493Z,83.61
2023-04-24T21:19:34.175Z,82.93
2023-04-24T21:22:02.686Z,83.93
2023-04-24T21:24:30.958Z,86.09
2023-04-24T21:26:59.050Z,86.24
2023-04-24T21:29:27.750Z,84.19
2023-04-24T21:31:56.046Z,83.30
2023-04-24T21:34:24.562Z,83.50
2023-04-24T21:36:52.965Z,83.23
2023-04-24T21:39:21.277Z,83.92
2023-04-24T21:41:49.490Z,81.44
2023-04-24T21:44:18.063Z,83.27
2023-04-24T21:46:46.165Z,79.77
2023-04-24T21:49:14.362Z,81.12
2023-04-24T21:51:42.771Z,81.17
2023-04-24T21:54:10.724Z,82.65
2023-04-24T21:56:39.563Z,81.86
2023-04-24T21:59:09.050Z,83.01
2023-04-24T22:01:37.286Z,83.17
2023-04-24T22:04:06.967Z,81.17
2023-04-24T22:06:35.288Z,80.45
2023-04-24T22:09:04.778Z,79.90
2023-04-24T22:11:33.192Z,82.93
2023-04-24T22:14:01.516Z,84.12
2023-04-24T22:16:31.173Z,85.20
2023-04-24T22:19:00.010Z,88.16
2023-04-24T22:21:28.114Z,87.48
2023-04-24T22:23:56.472Z,91.37
2023-04-24T22:26:24.938Z,89.89
2023-04-24T22:28:52.924Z,88.63
2023-04-24T22:31:20.988Z,89.24
2023-04-24T22:33:49.939Z,88.98
2023-04-24T22:36:18.159Z,88.33
2023-04-24T22:38:46.091Z,88.50
2023-04-24T22:41:14.691Z,88.62
2023-04-24T22:43:42.705Z,89.93
2023-04-24T22:46:10.962Z,89.20
2023-04-24T22:48:39.656Z,87.11
2023-04-24T22:51:07.655Z,85.96
2023-04-24T22:53:37.107Z,86.75
2023-04-24T22:56:06.008Z,87.75
2023-04-24T22:58:33.991Z,85.89
2023-04-24T23:01:02.043Z,85.19
2023-04-24T23:03:31.831Z,83.09
2023-04-24T23:05:59.936Z,85.24
2023-04-24T23:08:27.864Z,85.71
2023-04-24T23:10:56.316Z,86.37
2023-04-24T23:13:24.396Z,85.59
2023-04-24T23:15:54.574Z,83.50
2023-04-24T23:18:23.291Z,83.54
2023-04-24T23:20:51.725Z,83.41
2023-04-24T23:23:19.711Z,84.87
2023-04-24T23:25:48.218Z,86.32
2023-04-24T23:28:16.343Z,86.19
2023-04-24T23:30:44.413Z,85.18
2023-04-24T23:33:12.886Z,86.33
2023-04-24T23:35:41.032Z,84.76
2023-04-24T23:38:09.048Z,82.85
2023-04-24T23:40:37.362Z,81.50
2023-04-24T23:43:08.235Z,81.24
2023-04-24T23:45:37.244Z,82.32
2023-04-24T23:48:06.121Z,83.48
2023-04-24T23:50:34.371Z,82.75
2023-04-24T23:53:02.369Z,82.10
2023-04-24T23:55:30.882Z,82.22
2023-04-24T23:57:58.826Z,82.03
